Terminal Aerodrome Forecast
Issued by NWS

Home | Current Version | Previous Version | Text Only | Print | Product List | Glossary On
Versions: 1 2 3 4 5 6 7 8 9 10 11 12 13 14 15 16
000
FTUS43 KLSX 201134
TAFCPS
TAF
KCPS 201134Z 2012/2112 28007KT 5SM SHRA VCTS SCT005 OVC025CB
     FM201400 17007KT P6SM VCSH SCT025 OVC050
     FM201600 19010KT P6SM BKN050
     FM202200 21007KT P6SM VCTS BKN050CB
     FM210400 26005KT P6SM BKN070
     FM210900 28006KT P6SM SKC=

USA.gov is the U.S. government's official web portal to all federal, state and local government web resources and services.